createdAt,value
2023-01-13T00:00:49.621Z,21.1
2023-01-13T00:01:53.890Z,21.1
2023-01-13T00:02:58.106Z,21.1
2023-01-13T00:04:02.360Z,21.12
2023-01-13T00:05:06.583Z,21.12
2023-01-13T00:06:10.888Z,21.13
2023-01-13T00:07:15.115Z,21.1
2023-01-13T00:08:19.322Z,21.12
2023-01-13T00:09:23.523Z,21.09
2023-01-13T00:10:27.756Z,21.11
2023-01-13T00:11:31.984Z,21.11
2023-01-13T00:12:36.208Z,21.1
2023-01-13T00:13:40.422Z,21.09
2023-01-13T00:14:44.667Z,21.09
2023-01-13T00:15:48.959Z,21.09
2023-01-13T00:16:53.321Z,21.09
2023-01-13T00:17:57.546Z,21.08
2023-01-13T00:19:01.758Z,21.07
2023-01-13T00:20:06.012Z,21.04
2023-01-13T00:21:10.274Z,21.06
2023-01-13T00:22:14.557Z,21.05
2023-01-13T00:23:18.828Z,21.05
2023-01-13T00:24:23.061Z,21.04
2023-01-13T00:25:27.301Z,21.04
2023-01-13T00:26:31.584Z,21.03
2023-01-13T00:27:35.810Z,21.03
2023-01-13T00:28:40.054Z,21.03
2023-01-13T00:29:44.301Z,21
2023-01-13T00:30:48.636Z,20.84
2023-01-13T00:31:52.960Z,20.98
2023-01-13T00:32:57.264Z,21
2023-01-13T00:34:01.568Z,20.97
2023-01-13T00:35:05.818Z,20.98
2023-01-13T00:36:10.044Z,21
2023-01-13T00:37:14.273Z,21.01
2023-01-13T00:38:18.536Z,20.97
2023-01-13T00:39:22.783Z,21
2023-01-13T00:40:27.031Z,20.99
2023-01-13T00:41:31.232Z,20.95
2023-01-13T00:42:35.435Z,20.97
2023-01-13T00:43:39.697Z,20.93
2023-01-13T00:44:43.923Z,20.92
2023-01-13T00:45:48.183Z,20.96
2023-01-13T00:46:52.480Z,20.96
2023-01-13T00:47:56.897Z,20.92
2023-01-13T00:49:01.126Z,20.95
2023-01-13T00:50:05.365Z,20.93
2023-01-13T00:51:09.585Z,20.94
2023-01-13T00:52:13.822Z,20.91
2023-01-13T00:53:18.039Z,20.94
2023-01-13T00:54:22.296Z,20.93
2023-01-13T00:55:26.519Z,20.92
2023-01-13T00:56:45.575Z,20.91
2023-01-13T00:57:49.857Z,20.9
2023-01-13T00:58:54.124Z,20.89
2023-01-13T00:59:58.392Z,20.89
2023-01-13T01:01:02.760Z,20.9
2023-01-13T01:02:07.521Z,20.91
2023-01-13T01:03:12.000Z,20.87
2023-01-13T01:04:16.217Z,20.88
2023-01-13T01:05:20.488Z,20.87
2023-01-13T01:06:24.763Z,20.87
2023-01-13T01:07:29.019Z,20.87
2023-01-13T01:08:33.249Z,20.86
2023-01-13T01:09:37.480Z,20.84
2023-01-13T01:10:41.843Z,20.87
2023-01-13T01:11:46.094Z,20.82
2023-01-13T01:12:50.325Z,20.87
2023-01-13T01:13:54.552Z,20.86
2023-01-13T01:14:58.833Z,20.83
2023-01-13T01:16:03.112Z,20.85
2023-01-13T01:17:07.533Z,20.86
2023-01-13T01:18:11.760Z,20.87
2023-01-13T01:19:18.529Z,20.86
2023-01-13T01:20:22.777Z,20.86
2023-01-13T01:21:27.009Z,20.86
2023-01-13T01:22:31.258Z,20.82
2023-01-13T01:23:35.498Z,20.82
2023-01-13T01:24:39.797Z,20.84
2023-01-13T01:25:44.062Z,20.81
2023-01-13T01:26:48.370Z,20.81
2023-01-13T01:27:52.707Z,20.83
2023-01-13T01:28:56.944Z,20.82
2023-01-13T01:30:01.158Z,20.8
2023-01-13T01:31:05.457Z,20.82
2023-01-13T01:32:09.967Z,20.81
2023-01-13T01:33:14.274Z,20.78
2023-01-13T01:34:18.508Z,20.78
2023-01-13T01:35:22.754Z,20.8
2023-01-13T01:36:27.003Z,20.77
2023-01-13T01:37:31.293Z,20.77
2023-01-13T01:38:35.497Z,20.77
2023-01-13T01:39:39.734Z,20.8
2023-01-13T01:40:43.963Z,20.79
2023-01-13T01:41:48.179Z,20.78
2023-01-13T01:42:52.375Z,20.76
2023-01-13T01:43:56.612Z,20.79
2023-01-13T01:45:00.853Z,20.75
2023-01-13T01:46:05.135Z,20.75
2023-01-13T01:47:09.411Z,20.77
2023-01-13T01:48:13.672Z,20.77
2023-01-13T01:49:17.959Z,20.77
2023-01-13T01:50:22.179Z,20.77
2023-01-13T01:51:26.423Z,20.73
2023-01-13T01:52:30.655Z,20.76
2023-01-13T01:53:34.872Z,20.75
2023-01-13T01:54:39.208Z,20.75
2023-01-13T01:55:43.437Z,20.75
2023-01-13T01:56:47.696Z,20.75
2023-01-13T01:57:51.986Z,20.72
2023-01-13T01:58:56.220Z,20.71
2023-01-13T02:00:00.591Z,20.71
2023-01-13T02:01:04.947Z,20.73
2023-01-13T02:02:09.717Z,20.73
2023-01-13T02:03:14.230Z,20.73
2023-01-13T02:04:18.426Z,20.72
2023-01-13T02:05:22.698Z,20.72
2023-01-13T02:06:27.194Z,20.72
2023-01-13T02:07:31.461Z,20.69
2023-01-13T02:08:35.690Z,20.71
2023-01-13T02:09:39.994Z,20.44
2023-01-13T02:10:44.226Z,20.71
2023-01-13T02:11:48.451Z,20.72
2023-01-13T02:12:52.730Z,20.71
2023-01-13T02:13:56.952Z,20.72
2023-01-13T02:15:01.219Z,20.71
2023-01-13T02:16:05.552Z,20.71
2023-01-13T02:17:09.910Z,20.69
2023-01-13T02:18:14.179Z,20.68
2023-01-13T02:19:18.391Z,20.68
2023-01-13T02:20:22.618Z,20.7
2023-01-13T02:21:27.080Z,20.69
2023-01-13T02:22:31.402Z,20.69
2023-01-13T02:23:35.614Z,20.69
2023-01-13T02:24:39.857Z,20.65
2023-01-13T02:25:44.344Z,20.66
2023-01-13T02:26:48.626Z,20.65
2023-01-13T02:27:53.084Z,20.66
2023-01-13T02:28:57.801Z,20.65
2023-01-13T02:30:02.034Z,20.67
2023-01-13T02:31:06.257Z,20.66
2023-01-13T02:32:10.585Z,20.63
2023-01-13T02:33:14.850Z,20.65
2023-01-13T02:34:19.087Z,20.66
2023-01-13T02:35:23.297Z,20.63
2023-01-13T02:36:27.526Z,20.65
2023-01-13T02:37:31.792Z,20.62
2023-01-13T02:38:36.029Z,20.62
2023-01-13T02:39:40.295Z,20.64
2023-01-13T02:40:44.546Z,20.63
2023-01-13T02:41:48.750Z,20.63
2023-01-13T02:42:52.995Z,20.6
2023-01-13T02:43:57.200Z,20.63
2023-01-13T02:45:01.430Z,20.62
2023-01-13T02:46:05.724Z,20.61
2023-01-13T02:47:10.157Z,20.62
2023-01-13T02:48:14.398Z,20.59
2023-01-13T02:49:18.632Z,20.61
2023-01-13T02:50:22.893Z,20.59
2023-01-13T02:51:27.090Z,20.61
2023-01-13T02:52:31.292Z,20.59
2023-01-13T02:53:35.518Z,20.61
2023-01-13T02:54:39.759Z,20.6
2023-01-13T02:55:43.998Z,20.58
2023-01-13T02:56:48.220Z,20.57
2023-01-13T02:57:52.425Z,20.59
2023-01-13T02:58:56.891Z,20.59
2023-01-13T03:00:01.401Z,20.58
2023-01-13T03:01:05.647Z,20.55
2023-01-13T03:02:10.145Z,20.58
2023-01-13T03:03:14.993Z,20.57
2023-01-13T03:04:19.140Z,20.56
2023-01-13T03:05:23.243Z,20.57
2023-01-13T03:06:27.640Z,20.56
2023-01-13T03:07:31.757Z,20.56
2023-01-13T03:08:35.871Z,20.56
2023-01-13T03:09:39.978Z,20.56
2023-01-13T03:10:44.086Z,20.55
2023-01-13T03:11:48.182Z,20.55
2023-01-13T03:12:52.293Z,20.54
2023-01-13T03:13:56.409Z,20.5
2023-01-13T03:15:00.622Z,20.53
2023-01-13T03:16:04.761Z,20.52
2023-01-13T03:17:08.882Z,20.55
2023-01-13T03:18:12.977Z,20.55
2023-01-13T03:19:17.096Z,20.55
2023-01-13T03:20:21.317Z,20.54
2023-01-13T03:21:25.414Z,20.53
2023-01-13T03:22:29.519Z,20.53
2023-01-13T03:23:33.609Z,20.53
2023-01-13T03:24:37.773Z,20.51
2023-01-13T03:25:41.904Z,20.53
2023-01-13T03:26:46.027Z,20.52
2023-01-13T03:27:50.129Z,20.51
2023-01-13T03:28:54.221Z,20.49
2023-01-13T03:29:58.341Z,20.51
2023-01-13T03:31:02.484Z,20.49
2023-01-13T03:32:06.652Z,20.5
2023-01-13T03:33:10.760Z,20.46
2023-01-13T03:34:14.856Z,20.48
2023-01-13T03:35:18.955Z,20.48
2023-01-13T03:36:23.250Z,20.47
2023-01-13T03:37:27.349Z,20.47
2023-01-13T03:38:31.467Z,20.48
2023-01-13T03:39:35.662Z,20.46
2023-01-13T03:40:39.771Z,20.51
2023-01-13T03:41:43.898Z,20.49
2023-01-13T03:42:48.017Z,20.54
2023-01-13T03:43:52.093Z,20.55
2023-01-13T03:44:56.198Z,20.57
2023-01-13T03:46:00.394Z,20.59
2023-01-13T03:47:04.877Z,20.62
2023-01-13T03:48:09.004Z,20.61
2023-01-13T03:49:13.114Z,20.65
2023-01-13T03:50:17.266Z,20.66
2023-01-13T03:51:21.355Z,20.64
2023-01-13T03:52:25.452Z,20.66
2023-01-13T03:53:29.560Z,20.71
2023-01-13T03:54:33.682Z,20.74
2023-01-13T03:55:37.800Z,20.75
2023-01-13T03:56:41.932Z,20.74
2023-01-13T03:57:46.098Z,20.76
2023-01-13T03:58:50.319Z,20.77
2023-01-13T03:59:54.523Z,20.77
2023-01-13T04:00:58.778Z,20.77
2023-01-13T04:02:03.370Z,20.77
2023-01-13T04:03:08.070Z,20.77
2023-01-13T04:04:12.142Z,20.76
2023-01-13T04:05:16.285Z,20.75
2023-01-13T04:06:20.440Z,20.75
2023-01-13T04:07:24.554Z,20.75
2023-01-13T04:08:28.674Z,20.75
2023-01-13T04:09:32.898Z,20.75
2023-01-13T04:10:37.025Z,20.76
2023-01-13T04:11:41.224Z,20.75
2023-01-13T04:12:45.330Z,20.78
2023-01-13T04:13:49.453Z,20.8
2023-01-13T04:14:53.540Z,20.83
2023-01-13T04:15:57.662Z,20.84
2023-01-13T04:17:02.044Z,20.88
2023-01-13T04:18:06.150Z,20.9
2023-01-13T04:19:10.276Z,20.93
2023-01-13T04:20:14.634Z,20.94
2023-01-13T04:21:18.733Z,20.97
2023-01-13T04:22:22.826Z,21
2023-01-13T04:23:26.963Z,21
2023-01-13T04:24:31.159Z,21.01
2023-01-13T04:25:35.260Z,21.01
2023-01-13T04:26:39.366Z,21
2023-01-13T04:27:43.472Z,21.01
2023-01-13T04:28:47.599Z,21
2023-01-13T04:29:51.727Z,20.99
2023-01-13T04:30:55.864Z,20.97
2023-01-13T04:32:00.190Z,20.96
2023-01-13T04:33:04.295Z,20.95
2023-01-13T04:34:08.417Z,20.94
2023-01-13T04:35:12.540Z,20.92
2023-01-13T04:36:16.655Z,20.93
2023-01-13T04:37:20.786Z,20.95
2023-01-13T04:38:24.906Z,20.99
2023-01-13T04:39:29.064Z,21
2023-01-13T04:40:33.191Z,20.99
2023-01-13T04:41:37.300Z,21.03
2023-01-13T04:42:41.422Z,21.09
2023-01-13T04:43:45.570Z,21.09
2023-01-13T04:44:49.702Z,21.12
2023-01-13T04:45:53.907Z,21.15
2023-01-13T04:46:58.111Z,21.17
2023-01-13T04:48:02.246Z,21.17
2023-01-13T04:49:06.372Z,21.17
2023-01-13T04:50:10.512Z,21.18
2023-01-13T04:51:14.663Z,21.19
2023-01-13T04:52:18.763Z,21.18
2023-01-13T04:53:22.885Z,21.18
2023-01-13T04:54:26.983Z,21.16
2023-01-13T04:55:31.128Z,21.16
2023-01-13T04:56:35.296Z,21.13
2023-01-13T04:57:39.408Z,21.12
2023-01-13T04:58:43.534Z,21.11
2023-01-13T04:59:47.655Z,21.07
2023-01-13T05:00:51.917Z,21.06
2023-01-13T05:01:56.472Z,21.07
2023-01-13T05:03:00.870Z,21.04
2023-01-13T05:04:04.995Z,21.03
2023-01-13T05:05:09.248Z,21.02
2023-01-13T05:06:13.841Z,21.04
2023-01-13T05:07:18.549Z,21.04
2023-01-13T05:08:22.679Z,21
2023-01-13T05:09:26.808Z,21.01
2023-01-13T05:10:30.919Z,21.01
2023-01-13T05:11:35.075Z,21.05
2023-01-13T05:12:39.305Z,21.1
2023-01-13T05:13:43.395Z,21.12
2023-01-13T05:14:47.498Z,21.14
2023-01-13T05:15:51.918Z,21.14
2023-01-13T05:16:56.171Z,21.17
2023-01-13T05:18:00.351Z,21.21
2023-01-13T05:19:04.469Z,21.25
2023-01-13T05:20:08.597Z,21.29
2023-01-13T05:21:13.000Z,21.3
2023-01-13T05:22:17.137Z,21.31
2023-01-13T05:23:21.263Z,21.31
2023-01-13T05:24:25.390Z,21.28
2023-01-13T05:25:29.487Z,21.27
2023-01-13T05:26:33.641Z,21.29
2023-01-13T05:27:37.761Z,21.27
2023-01-13T05:28:41.885Z,21.26
2023-01-13T05:29:46.003Z,21.24
2023-01-13T05:30:50.150Z,21.26
2023-01-13T05:31:54.486Z,21.24
2023-01-13T05:32:58.684Z,21.2
2023-01-13T05:34:02.857Z,21.18
2023-01-13T05:35:06.985Z,21.19
2023-01-13T05:36:11.431Z,21.18
2023-01-13T05:37:15.616Z,21.18
2023-01-13T05:38:19.739Z,21.16
2023-01-13T05:39:23.843Z,21.16
2023-01-13T05:40:27.960Z,21.15
2023-01-13T05:41:32.068Z,21.11
2023-01-13T05:42:36.197Z,21.11
2023-01-13T05:43:41.073Z,21.11
2023-01-13T05:44:45.194Z,21.11
2023-01-13T05:45:49.326Z,21.11
2023-01-13T05:46:53.541Z,21.09
2023-01-13T05:47:57.885Z,21.08
2023-01-13T05:49:01.997Z,21.05
2023-01-13T05:50:06.144Z,21.08
2023-01-13T05:51:10.292Z,21.06
2023-01-13T05:52:14.435Z,21.04
2023-01-13T05:53:18.534Z,21.04
2023-01-13T05:54:22.664Z,21.01
2023-01-13T05:55:26.776Z,21.01
2023-01-13T05:56:30.936Z,21.02
2023-01-13T05:57:35.050Z,20.99
2023-01-13T05:58:39.215Z,21.01
2023-01-13T05:59:43.369Z,21.01
2023-01-13T06:00:47.493Z,20.99
2023-01-13T06:01:51.643Z,21
2023-01-13T06:02:55.758Z,20.98
2023-01-13T06:04:00.244Z,20.95
2023-01-13T06:05:04.611Z,20.94
2023-01-13T06:06:08.806Z,20.97
2023-01-13T06:07:12.937Z,20.96
2023-01-13T06:08:17.045Z,20.96
2023-01-13T06:09:21.320Z,20.93
2023-01-13T06:10:25.450Z,20.92
2023-01-13T06:11:29.550Z,20.94
2023-01-13T06:12:33.678Z,20.92
2023-01-13T06:13:37.903Z,20.91
2023-01-13T06:14:42.696Z,20.9
2023-01-13T06:15:46.929Z,20.92
2023-01-13T06:16:51.162Z,20.92
2023-01-13T06:17:55.267Z,20.91
2023-01-13T06:18:59.496Z,20.88
2023-01-13T06:20:03.630Z,20.89
2023-01-13T06:21:07.757Z,20.86
2023-01-13T06:22:11.902Z,20.89
2023-01-13T06:23:16.021Z,20.88
2023-01-13T06:24:20.170Z,20.86
2023-01-13T06:25:24.279Z,20.86
2023-01-13T06:26:28.397Z,20.87
2023-01-13T06:27:32.552Z,20.84
2023-01-13T06:28:36.728Z,20.83
2023-01-13T06:29:40.867Z,20.85
2023-01-13T06:30:44.970Z,20.85
2023-01-13T06:31:49.213Z,20.84
2023-01-13T06:32:53.443Z,20.82
2023-01-13T06:33:57.530Z,20.85
2023-01-13T06:35:02.766Z,20.83
2023-01-13T06:36:08.928Z,20.83
2023-01-13T06:37:13.046Z,20.82
2023-01-13T06:38:17.176Z,20.82
2023-01-13T06:39:21.277Z,20.78
2023-01-13T06:40:25.496Z,20.8
2023-01-13T06:41:29.909Z,20.78
2023-01-13T06:42:34.047Z,20.79
2023-01-13T06:43:38.154Z,20.8
2023-01-13T06:44:42.306Z,20.77
2023-01-13T06:45:46.442Z,20.79
2023-01-13T06:46:50.650Z,20.8
2023-01-13T06:47:54.944Z,20.77
2023-01-13T06:48:59.046Z,20.76
2023-01-13T06:50:03.145Z,20.79
2023-01-13T06:51:07.321Z,20.78
2023-01-13T06:52:11.418Z,20.76
2023-01-13T06:53:15.561Z,20.74
2023-01-13T06:54:19.757Z,20.76
2023-01-13T06:55:23.904Z,20.76
2023-01-13T06:56:28.014Z,20.73
2023-01-13T06:57:32.093Z,20.72
2023-01-13T06:58:36.235Z,20.74
2023-01-13T06:59:40.396Z,20.71
2023-01-13T07:00:44.564Z,20.71
2023-01-13T07:01:49.216Z,20.75
2023-01-13T07:02:53.878Z,20.72
2023-01-13T07:03:58.151Z,20.71
2023-01-13T07:05:02.283Z,20.73
2023-01-13T07:06:06.397Z,20.72
2023-01-13T07:07:10.562Z,20.72
2023-01-13T07:08:14.696Z,20.72
2023-01-13T07:09:18.940Z,20.71
2023-01-13T07:10:23.066Z,20.7
2023-01-13T07:11:27.182Z,20.7
2023-01-13T07:12:31.284Z,20.7
2023-01-13T07:13:35.403Z,20.67
2023-01-13T07:14:39.531Z,20.7
2023-01-13T07:15:43.655Z,20.68
2023-01-13T07:16:47.816Z,20.7
2023-01-13T07:17:52.170Z,20.66
2023-01-13T07:18:56.382Z,20.69
2023-01-13T07:20:00.525Z,20.68
2023-01-13T07:21:04.633Z,20.68
2023-01-13T07:22:08.769Z,20.68
2023-01-13T07:23:12.862Z,20.68
2023-01-13T07:24:16.966Z,20.67
2023-01-13T07:25:21.082Z,20.66
2023-01-13T07:26:25.237Z,20.64
2023-01-13T07:27:29.463Z,20.65
2023-01-13T07:28:33.586Z,20.65
2023-01-13T07:29:37.706Z,20.65
2023-01-13T07:30:41.898Z,20.65
2023-01-13T07:31:47.641Z,20.64
2023-01-13T07:32:54.200Z,20.63
2023-01-13T07:33:58.309Z,20.64
2023-01-13T07:35:03.036Z,20.64
2023-01-13T07:36:07.158Z,20.6
2023-01-13T07:37:11.262Z,20.59
2023-01-13T07:38:15.468Z,20.62
2023-01-13T07:39:19.571Z,20.59
2023-01-13T07:40:23.680Z,20.61
2023-01-13T07:41:27.833Z,20.61
2023-01-13T07:42:31.936Z,20.61
2023-01-13T07:43:36.040Z,20.6
2023-01-13T07:44:40.233Z,20.59
2023-01-13T07:45:44.420Z,20.6
2023-01-13T07:46:48.714Z,20.56
2023-01-13T07:47:52.866Z,20.58
2023-01-13T07:48:56.978Z,20.55
2023-01-13T07:50:01.087Z,20.56
2023-01-13T07:51:05.253Z,20.57
2023-01-13T07:52:09.380Z,20.57
2023-01-13T07:53:13.507Z,20.55
2023-01-13T07:54:19.294Z,20.55
2023-01-13T07:55:42.794Z,20.54
2023-01-13T07:56:46.922Z,20.54
2023-01-13T07:57:51.023Z,20.53
2023-01-13T07:58:55.151Z,20.56
2023-01-13T07:59:59.284Z,20.56
2023-01-13T08:01:03.504Z,20.56
2023-01-13T08:02:08.011Z,20.54
2023-01-13T08:03:12.683Z,20.55
2023-01-13T08:04:16.818Z,20.54
2023-01-13T08:05:20.942Z,20.54
2023-01-13T08:06:25.063Z,20.54
2023-01-13T08:07:29.193Z,20.53
2023-01-13T08:08:33.341Z,20.53
2023-01-13T08:09:37.544Z,20.49
2023-01-13T08:10:41.965Z,20.52
2023-01-13T08:11:46.079Z,20.51
2023-01-13T08:12:52.022Z,20.52
2023-01-13T08:14:00.340Z,20.48
2023-01-13T08:15:04.463Z,20.5
2023-01-13T08:16:08.614Z,20.51
2023-01-13T08:17:12.776Z,20.48
2023-01-13T08:18:16.897Z,20.5
2023-01-13T08:19:21.012Z,20.51
2023-01-13T08:20:25.135Z,20.5
2023-01-13T08:21:29.471Z,20.5
2023-01-13T08:22:33.715Z,20.5
2023-01-13T08:23:37.922Z,20.5
2023-01-13T08:24:42.101Z,20.51
2023-01-13T08:25:46.240Z,20.5
2023-01-13T08:26:50.360Z,20.49
2023-01-13T08:27:54.485Z,20.48
2023-01-13T08:28:58.636Z,20.45
2023-01-13T08:30:02.769Z,20.49
2023-01-13T08:31:07.034Z,20.49
2023-01-13T08:32:11.395Z,20.48
2023-01-13T08:33:15.542Z,20.48
2023-01-13T08:34:19.658Z,20.45
2023-01-13T08:35:23.773Z,20.46
2023-01-13T08:36:27.896Z,20.44
2023-01-13T08:37:32.034Z,20.45
2023-01-13T08:38:36.235Z,20.46
2023-01-13T08:39:40.382Z,20.43
2023-01-13T08:40:44.504Z,20.46
2023-01-13T08:41:48.657Z,20.45
2023-01-13T08:42:52.766Z,20.42
2023-01-13T08:43:56.860Z,20.45
2023-01-13T08:45:01.064Z,20.42
2023-01-13T08:46:05.287Z,20.42
2023-01-13T08:47:09.560Z,20.41
2023-01-13T08:48:13.707Z,20.44
2023-01-13T08:49:17.830Z,20.41
2023-01-13T08:50:21.950Z,20.43
2023-01-13T08:51:26.091Z,20.43
2023-01-13T08:52:30.426Z,20.42
2023-01-13T08:53:34.599Z,20.41
2023-01-13T08:54:38.888Z,20.41
2023-01-13T08:55:43.001Z,20.38
2023-01-13T08:56:47.165Z,20.42
2023-01-13T08:57:52.082Z,20.42
2023-01-13T08:59:17.602Z,20.43
2023-01-13T09:00:21.728Z,20.42
2023-01-13T09:01:25.940Z,20.41
2023-01-13T09:02:30.644Z,20.42
2023-01-13T09:03:34.957Z,20.41
2023-01-13T09:04:39.140Z,20.41
2023-01-13T09:05:43.772Z,20.37
2023-01-13T09:06:47.931Z,20.39
2023-01-13T09:07:52.048Z,20.41
2023-01-13T09:08:56.207Z,20.41
2023-01-13T09:10:00.334Z,20.41
2023-01-13T09:11:04.469Z,20.41
2023-01-13T09:12:08.678Z,20.41
2023-01-13T09:13:12.935Z,20.41
2023-01-13T09:14:17.212Z,20.41
2023-01-13T09:15:21.539Z,20.4
2023-01-13T09:16:25.665Z,20.4
2023-01-13T09:17:29.780Z,20.37
2023-01-13T09:18:33.945Z,20.39
2023-01-13T09:19:38.102Z,20.36
2023-01-13T09:20:42.232Z,20.36
2023-01-13T09:21:46.362Z,20.39
2023-01-13T09:22:50.571Z,20.38
2023-01-13T09:23:54.678Z,20.35
2023-01-13T09:24:58.779Z,20.36
2023-01-13T09:26:02.956Z,20.37
2023-01-13T09:27:07.083Z,20.37
2023-01-13T09:28:11.211Z,20.37
2023-01-13T09:29:15.450Z,20.36
2023-01-13T09:30:19.707Z,20.36
2023-01-13T09:31:23.985Z,20.35
2023-01-13T09:32:28.204Z,20.33
2023-01-13T09:33:32.464Z,20.33
2023-01-13T09:34:36.620Z,20.35
2023-01-13T09:35:40.736Z,20.28
2023-01-13T09:36:44.920Z,20.31
2023-01-13T09:37:49.037Z,20.34
2023-01-13T09:38:53.482Z,20.32
2023-01-13T09:39:57.597Z,20.34
2023-01-13T09:41:01.726Z,20.36
2023-01-13T09:42:05.827Z,20.35
2023-01-13T09:43:10.002Z,20.33
2023-01-13T09:44:14.135Z,20.33
2023-01-13T09:45:18.283Z,20.29
2023-01-13T09:46:22.470Z,20.31
2023-01-13T09:47:26.762Z,20.33
2023-01-13T09:48:30.873Z,20.34
2023-01-13T09:49:35.061Z,20.33
2023-01-13T09:50:39.275Z,20.34
2023-01-13T09:51:43.519Z,20.34
2023-01-13T09:52:47.830Z,20.31
2023-01-13T09:53:51.965Z,20.33
2023-01-13T09:54:56.086Z,20.33
2023-01-13T09:56:00.247Z,20.31
2023-01-13T09:57:04.408Z,20.32
2023-01-13T09:58:08.815Z,20.31
2023-01-13T09:59:13.062Z,20.33
2023-01-13T10:00:17.171Z,20.33
2023-01-13T10:01:21.306Z,20.29
2023-01-13T10:02:25.677Z,20.29
2023-01-13T10:03:30.041Z,20.29
2023-01-13T10:04:34.401Z,20.31
2023-01-13T10:05:38.665Z,20.31
2023-01-13T10:06:42.802Z,20.33
2023-01-13T10:07:47.800Z,20.31
2023-01-13T10:08:52.857Z,20.33
2023-01-13T10:09:57.273Z,20.3
2023-01-13T10:11:01.371Z,20.3
2023-01-13T10:12:05.499Z,20.33
2023-01-13T10:13:09.659Z,20.33
2023-01-13T10:14:13.767Z,20.3
2023-01-13T10:15:17.905Z,20.32
2023-01-13T10:16:22.085Z,20.32
2023-01-13T10:17:26.353Z,20.32
2023-01-13T10:18:30.468Z,20.31
2023-01-13T10:19:34.568Z,20.31
2023-01-13T10:20:38.696Z,20.31
2023-01-13T10:21:42.846Z,20.3
2023-01-13T10:22:47.027Z,20.31
2023-01-13T10:23:51.407Z,20.3
2023-01-13T10:24:55.533Z,20.3
2023-01-13T10:25:59.791Z,20.29
2023-01-13T10:27:04.277Z,20.29
2023-01-13T10:28:08.466Z,20.29
2023-01-13T10:29:12.596Z,20.3
2023-01-13T10:30:16.903Z,20.3
2023-01-13T10:31:21.244Z,20.3
2023-01-13T10:32:25.626Z,20.29
2023-01-13T10:33:29.774Z,20.3
2023-01-13T10:34:34.004Z,20.27
2023-01-13T10:35:38.185Z,20.3
2023-01-13T10:36:42.629Z,20.27
2023-01-13T10:37:47.044Z,20.31
2023-01-13T10:38:51.209Z,20.29
2023-01-13T10:39:55.367Z,20.3
2023-01-13T10:40:59.510Z,20.32
2023-01-13T10:42:03.666Z,20.32
2023-01-13T10:43:07.818Z,20.28
2023-01-13T10:44:11.929Z,20.3
2023-01-13T10:45:16.060Z,20.29
2023-01-13T10:46:20.258Z,20.26
2023-01-13T10:47:24.739Z,20.29
2023-01-13T10:48:28.875Z,20.28
2023-01-13T10:49:33.062Z,20.3
2023-01-13T10:50:37.211Z,20.29
2023-01-13T10:51:41.311Z,20.26
2023-01-13T10:52:45.435Z,20.28
2023-01-13T10:53:49.519Z,20.28
2023-01-13T10:54:53.622Z,20.28
2023-01-13T10:55:57.754Z,20.27
2023-01-13T10:57:01.872Z,20.25
2023-01-13T10:58:06.028Z,20.24
2023-01-13T10:59:10.317Z,20.26
2023-01-13T11:00:14.458Z,20.26
2023-01-13T11:01:18.739Z,20.27
2023-01-13T11:02:26.375Z,20.26
2023-01-13T11:03:31.179Z,20.24
2023-01-13T11:04:35.354Z,20.26
2023-01-13T11:05:39.911Z,20.25
2023-01-13T11:06:44.003Z,20.25
2023-01-13T11:07:48.098Z,20.25
2023-01-13T11:08:52.228Z,20.25
2023-01-13T11:09:56.327Z,20.24
2023-01-13T11:11:00.435Z,20.23
2023-01-13T11:12:04.551Z,20.23
2023-01-13T11:13:08.642Z,20.23
2023-01-13T11:14:12.762Z,20.2
2023-01-13T11:15:16.888Z,20.19
2023-01-13T11:16:21.129Z,20.19
2023-01-13T11:17:25.408Z,20.22
2023-01-13T11:18:29.531Z,20.2
2023-01-13T11:19:33.670Z,20.23
2023-01-13T11:20:40.992Z,20.2
2023-01-13T11:21:45.119Z,20.22
2023-01-13T11:22:49.232Z,20.23
2023-01-13T11:23:53.368Z,20.21
2023-01-13T11:24:57.480Z,20.23
2023-01-13T11:26:01.588Z,20.25
2023-01-13T11:27:05.760Z,20.26
2023-01-13T11:28:09.883Z,20.27
2023-01-13T11:29:13.981Z,20.31
2023-01-13T11:30:18.099Z,20.29
2023-01-13T11:31:22.261Z,20.29
2023-01-13T11:32:26.592Z,20.3
2023-01-13T11:33:30.700Z,20.32
2023-01-13T11:34:34.821Z,20.29
2023-01-13T11:35:38.995Z,20.29
2023-01-13T11:36:43.170Z,20.31
2023-01-13T11:37:47.311Z,20.28
2023-01-13T11:38:51.414Z,20.31
2023-01-13T11:39:55.535Z,20.28
2023-01-13T11:40:59.641Z,20.27
2023-01-13T11:42:03.903Z,20.28
2023-01-13T11:43:08.057Z,20.28
2023-01-13T11:44:12.257Z,20.3
2023-01-13T11:45:16.354Z,20.29
2023-01-13T11:46:20.485Z,20.26
2023-01-13T11:47:24.730Z,20.28
2023-01-13T11:48:28.866Z,20.27
2023-01-13T11:49:32.961Z,20.28
2023-01-13T11:50:37.092Z,20.27
2023-01-13T11:51:41.241Z,20.26
2023-01-13T11:52:45.364Z,20.23
2023-01-13T11:53:49.475Z,20.24
2023-01-13T11:54:53.570Z,20.24
2023-01-13T11:55:57.723Z,20.27
2023-01-13T11:57:01.858Z,20.26
2023-01-13T11:58:05.978Z,20.28
2023-01-13T11:59:10.053Z,20.29
2023-01-13T12:00:14.238Z,20.3
2023-01-13T12:01:18.590Z,20.32
2023-01-13T12:02:26.248Z,20.33
2023-01-13T12:03:30.654Z,20.34
2023-01-13T12:04:34.979Z,20.33
2023-01-13T12:05:39.090Z,20.32
2023-01-13T12:06:43.216Z,20.32
2023-01-13T12:07:47.338Z,20.29
2023-01-13T12:08:51.434Z,20.29
2023-01-13T12:09:55.692Z,20.28
2023-01-13T12:10:59.795Z,20.28
2023-01-13T12:12:03.946Z,20.28
2023-01-13T12:13:08.093Z,20.28
2023-01-13T12:14:12.265Z,20.27
2023-01-13T12:15:16.399Z,20.26
2023-01-13T12:16:20.590Z,20.28
2023-01-13T12:17:24.825Z,20.27
2023-01-13T12:18:28.960Z,20.27
2023-01-13T12:19:33.110Z,20.27
2023-01-13T12:20:37.203Z,20.27
2023-01-13T12:21:41.424Z,20.26
2023-01-13T12:22:45.748Z,20.26
2023-01-13T12:23:49.956Z,20.24
2023-01-13T12:24:54.053Z,20.24
2023-01-13T12:25:58.216Z,20.25
2023-01-13T12:27:02.505Z,20.24
2023-01-13T12:28:06.639Z,20.22
2023-01-13T12:29:10.792Z,20.26
2023-01-13T12:30:15.007Z,20.26
2023-01-13T12:31:19.204Z,20.29
2023-01-13T12:32:23.442Z,20.29
2023-01-13T12:33:27.611Z,20.33
2023-01-13T12:34:31.745Z,20.31
2023-01-13T12:35:35.904Z,20.34
2023-01-13T12:36:40.105Z,20.3
2023-01-13T12:37:47.624Z,20.32
2023-01-13T12:38:51.800Z,20.31
2023-01-13T12:39:55.938Z,20.29
2023-01-13T12:41:00.093Z,20.3
2023-01-13T12:42:04.185Z,20.28
2023-01-13T12:43:08.284Z,20.26
2023-01-13T12:44:12.480Z,20.28
2023-01-13T12:45:18.482Z,20.27
2023-01-13T12:46:23.020Z,20.3
2023-01-13T12:47:27.385Z,20.3
2023-01-13T12:48:31.504Z,20.3
2023-01-13T12:49:35.618Z,20.3
2023-01-13T12:50:40.080Z,20.26
2023-01-13T12:51:44.199Z,20.3
2023-01-13T12:52:48.590Z,20.3
2023-01-13T12:53:54.490Z,20.28
2023-01-13T12:54:58.744Z,20.3
2023-01-13T12:56:02.907Z,20.29
2023-01-13T12:57:07.001Z,20.29
2023-01-13T12:58:11.160Z,20.29
2023-01-13T12:59:15.290Z,20.3
2023-01-13T13:00:19.397Z,20.29
2023-01-13T13:01:23.663Z,20.3
2023-01-13T13:02:28.212Z,20.27
2023-01-13T13:03:32.429Z,20.29
2023-01-13T13:04:36.564Z,20.28
2023-01-13T13:05:40.801Z,20.28
2023-01-13T13:06:44.982Z,20.28
2023-01-13T13:07:49.123Z,20.28
2023-01-13T13:08:53.277Z,20.27
2023-01-13T13:09:57.402Z,20.28
2023-01-13T13:11:01.599Z,20.28
2023-01-13T13:12:05.758Z,20.27
2023-01-13T13:13:09.873Z,20.25
2023-01-13T13:14:14.009Z,20.26
2023-01-13T13:15:18.177Z,20.26
2023-01-13T13:16:22.568Z,20.25
2023-01-13T13:17:26.813Z,20.27
2023-01-13T13:18:30.904Z,20.27
2023-01-13T13:19:35.030Z,20.27
2023-01-13T13:20:39.126Z,20.27
2023-01-13T13:21:43.232Z,20.27
2023-01-13T13:22:47.376Z,20.24
2023-01-13T13:23:51.508Z,20.26
2023-01-13T13:24:55.623Z,20.23
2023-01-13T13:25:59.892Z,20.26
2023-01-13T13:27:04.009Z,20.26
2023-01-13T13:28:08.117Z,20.26
2023-01-13T13:29:12.241Z,20.26
2023-01-13T13:30:16.379Z,20.27
2023-01-13T13:31:20.612Z,20.26
2023-01-13T13:32:24.843Z,20.25
2023-01-13T13:33:28.988Z,20.25
2023-01-13T13:34:33.068Z,20.23
